sensor_id;sensor_type;location;lat;lon;timestamp;pressure;altitude;pressure_sealevel;temperature;humidity
62152;BME280;48139;47.474;19.034;2023-02-10T04:59:51;102602.47;;;-5.06;100.00
62152;BME280;48139;47.474;19.034;2023-02-10T05:02:54;102602.47;;;-5.06;100.00
62152;BME280;48139;47.474;19.034;2023-02-10T05:05:57;102611.53;;;-5.44;100.00
62152;BME280;48139;47.474;19.034;2023-02-10T05:08:59;102615.97;;;-5.25;100.00
62152;BME280;48139;47.474;19.034;2023-02-10T05:12:02;102612.44;;;-5.11;100.00
62152;BME280;48139;47.474;19.034;2023-02-10T05:15:05;102613.25;;;-4.96;100.00
62152;BME280;48139;47.474;19.034;2023-02-10T05:18:10;102613.31;;;-4.94;100.00
62152;BME280;48139;47.474;19.034;2023-02-10T05:21:13;102619.53;;;-4.89;100.00
62152;BME280;48139;47.474;19.034;2023-02-10T05:24:16;102616.75;;;-4.94;100.00
62152;BME280;48139;47.474;19.034;2023-02-10T05:27:19;102620.44;;;-4.89;100.00
62152;BME280;48139;47.474;19.034;2023-02-10T05:30:21;102619.31;;;-4.94;100.00
62152;BME280;48139;47.474;19.034;2023-02-10T05:33:24;102626.81;;;-4.97;100.00
62152;BME280;48139;47.474;19.034;2023-02-10T05:36:26;102629.44;;;-5.11;100.00
62152;BME280;48139;47.474;19.034;2023-02-10T05:39:30;102635.09;;;-5.17;100.00
62152;BME280;48139;47.474;19.034;2023-02-10T05:42:32;102628.31;;;-5.16;100.00
62152;BME280;48139;47.474;19.034;2023-02-10T05:45:35;102640.69;;;-5.24;100.00
62152;BME280;48139;47.474;19.034;2023-02-10T05:48:38;102629.56;;;-5.41;100.00
62152;BME280;48139;47.474;19.034;2023-02-10T05:51:41;102641.44;;;-5.41;100.00
62152;BME280;48139;47.474;19.034;2023-02-10T05:54:43;102636.53;;;-5.38;100.00
62152;BME280;48139;47.474;19.034;2023-02-10T05:57:46;102628.59;;;-5.43;100.00
62152;BME280;48139;47.474;19.034;2023-02-10T06:00:49;102634.25;;;-5.48;100.00
62152;BME280;48139;47.474;19.034;2023-02-10T06:03:51;102625.56;;;-5.52;100.00
62152;BME280;48139;47.474;19.034;2023-02-10T06:06:54;102621.12;;;-5.23;100.00
62152;BME280;48139;47.474;19.034;2023-02-10T06:09:56;102635.41;;;-5.11;100.00
62152;BME280;48139;47.474;19.034;2023-02-10T06:12:59;102630.47;;;-5.24;100.00
62152;BME280;48139;47.474;19.034;2023-02-10T06:16:02;102631.66;;;-5.17;100.00
62152;BME280;48139;47.474;19.034;2023-02-10T06:19:04;102628.72;;;-5.09;100.00
62152;BME280;48139;47.474;19.034;2023-02-10T06:22:07;102632.41;;;-5.04;100.00
62152;BME280;48139;47.474;19.034;2023-02-10T06:25:11;102638.94;;;-5.09;100.00
62152;BME280;48139;47.474;19.034;2023-02-10T06:28:14;102632.81;;;-5.12;100.00
62152;BME280;48139;47.474;19.034;2023-02-10T06:31:16;102634.72;;;-5.08;100.00
62152;BME280;48139;47.474;19.034;2023-02-10T06:34:19;102637.81;;;-4.98;100.00
62152;BME280;48139;47.474;19.034;2023-02-10T06:37:22;102648.94;;;-4.97;100.00
62152;BME280;48139;47.474;19.034;2023-02-10T06:40:25;102643.72;;;-4.99;100.00
62152;BME280;48139;47.474;19.034;2023-02-10T06:43:27;102661.41;;;-4.71;100.00
62152;BME280;48139;47.474;19.034;2023-02-10T06:46:30;102675.25;;;-4.50;100.00
62152;BME280;48139;47.474;19.034;2023-02-10T06:49:33;102686.12;;;-4.54;100.00
62152;BME280;48139;47.474;19.034;2023-02-10T06:52:36;102690.19;;;-4.41;100.00
62152;BME280;48139;47.474;19.034;2023-02-10T06:55:40;102687.81;;;-4.38;100.00
62152;BME280;48139;47.474;19.034;2023-02-10T06:58:43;102688.13;;;-4.32;100.00
62152;BME280;48139;47.474;19.034;2023-02-10T07:01:45;102676.88;;;-4.18;100.00
62152;BME280;48139;47.474;19.034;2023-02-10T07:04:48;102671.94;;;-4.15;100.00
62152;BME280;48139;47.474;19.034;2023-02-10T07:07:50;102671.66;;;-4.03;100.00
62152;BME280;48139;47.474;19.034;2023-02-10T07:10:54;102676.56;;;-3.72;100.00
62152;BME280;48139;47.474;19.034;2023-02-10T07:13:56;102677.66;;;-3.67;100.00
62152;BME280;48139;47.474;19.034;2023-02-10T07:17:00;102687.19;;;-3.82;100.00
62152;BME280;48139;47.474;19.034;2023-02-10T07:20:03;102692.69;;;-3.57;100.00
62152;BME280;48139;47.474;19.034;2023-02-10T07:23:06;102689.75;;;-3.47;100.00
62152;BME280;48139;47.474;19.034;2023-02-10T07:26:09;102685.62;;;-3.43;100.00
62152;BME280;48139;47.474;19.034;2023-02-10T07:29:14;102692.19;;;-3.13;98.82
62152;BME280;48139;47.474;19.034;2023-02-10T07:32:17;102685.78;;;-3.03;97.44
62152;BME280;48139;47.474;19.034;2023-02-10T07:35:19;102688.97;;;-2.90;96.00
62152;BME280;48139;47.474;19.034;2023-02-10T07:38:24;102685.72;;;-3.05;96.48
62152;BME280;48139;47.474;19.034;2023-02-10T07:41:27;102690.22;;;-2.99;96.18
62152;BME280;48139;47.474;19.034;2023-02-10T07:44:30;102678.91;;;-2.85;94.76
62152;BME280;48139;47.474;19.034;2023-02-10T07:47:32;102666.25;;;-2.82;95.20
62152;BME280;48139;47.474;19.034;2023-02-10T07:50:35;102665.09;;;-2.69;94.56
62152;BME280;48139;47.474;19.034;2023-02-10T07:53:38;102663.59;;;-2.64;94.70
62152;BME280;48139;47.474;19.034;2023-02-10T07:56:40;102677.31;;;-2.64;93.86
62152;BME280;48139;47.474;19.034;2023-02-10T07:59:43;102676.97;;;-2.52;93.47
62152;BME280;48139;47.474;19.034;2023-02-10T08:02:45;102680.41;;;-2.52;95.66
62152;BME280;48139;47.474;19.034;2023-02-10T08:05:48;102685.19;;;-2.40;94.46
62152;BME280;48139;47.474;19.034;2023-02-10T08:08:51;102683.41;;;-2.22;93.59
62152;BME280;48139;47.474;19.034;2023-02-10T08:11:55;102688.72;;;-2.17;92.66
62152;BME280;48139;47.474;19.034;2023-02-10T08:14:57;102695.16;;;-2.06;92.88
62152;BME280;48139;47.474;19.034;2023-02-10T08:18:00;102697.00;;;-2.04;92.65
62152;BME280;48139;47.474;19.034;2023-02-10T08:21:04;102695.63;;;-1.95;92.72
62152;BME280;48139;47.474;19.034;2023-02-10T08:24:07;102691.72;;;-1.86;93.34
62152;BME280;48139;47.474;19.034;2023-02-10T08:27:10;102699.38;;;-1.67;92.33
62152;BME280;48139;47.474;19.034;2023-02-10T08:30:14;102694.31;;;-1.43;91.64
62152;BME280;48139;47.474;19.034;2023-02-10T08:33:17;102692.47;;;-1.02;88.82
62152;BME280;48139;47.474;19.034;2023-02-10T08:36:20;102686.06;;;1.19;74.63
62152;BME280;48139;47.474;19.034;2023-02-10T08:39:23;102686.56;;;4.04;57.38
62152;BME280;48139;47.474;19.034;2023-02-10T08:42:26;102676.12;;;5.95;49.88
62152;BME280;48139;47.474;19.034;2023-02-10T08:45:28;102678.00;;;8.28;42.77
62152;BME280;48139;47.474;19.034;2023-02-10T08:48:32;102677.75;;;9.33;38.81
62152;BME280;48139;47.474;19.034;2023-02-10T08:51:35;102673.25;;;9.58;38.25
62152;BME280;48139;47.474;19.034;2023-02-10T08:54:41;102671.91;;;8.32;40.10
62152;BME280;48139;47.474;19.034;2023-02-10T08:57:44;102683.00;;;7.16;43.12
62152;BME280;48139;47.474;19.034;2023-02-10T09:00:47;102678.75;;;7.44;43.10
62152;BME280;48139;47.474;19.034;2023-02-10T09:03:50;102680.28;;;6.95;44.08
62152;BME280;48139;47.474;19.034;2023-02-10T09:06:53;102677.87;;;7.45;43.40
62152;BME280;48139;47.474;19.034;2023-02-10T09:09:55;102669.19;;;8.96;40.13
62152;BME280;48139;47.474;19.034;2023-02-10T09:12:58;102670.06;;;8.97;39.61
62152;BME280;48139;47.474;19.034;2023-02-10T09:16:00;102663.81;;;9.25;39.34
62152;BME280;48139;47.474;19.034;2023-02-10T09:19:04;102667.50;;;8.77;40.08
62152;BME280;48139;47.474;19.034;2023-02-10T09:22:07;102663.19;;;7.74;42.10
62152;BME280;48139;47.474;19.034;2023-02-10T09:25:09;102664.91;;;7.61;42.52
62152;BME280;48139;47.474;19.034;2023-02-10T09:28:12;102676.53;;;5.53;46.84
62152;BME280;48139;47.474;19.034;2023-02-10T09:31:15;102665.28;;;4.25;51.24
62152;BME280;48139;47.474;19.034;2023-02-10T09:34:18;102677.75;;;3.46;54.76
62152;BME280;48139;47.474;19.034;2023-02-10T09:37:21;102678.06;;;3.19;57.32
62152;BME280;48139;47.474;19.034;2023-02-10T09:40:30;102669.47;;;2.80;58.52
62152;BME280;48139;47.474;19.034;2023-02-10T09:49:58;102671.06;;;2.75;60.97
62152;BME280;48139;47.474;19.034;2023-02-10T09:53:19;102674.66;;;2.80;60.18
62152;BME280;48139;47.474;19.034;2023-02-10T09:56:24;102672.56;;;2.64;58.00
62152;BME280;48139;47.474;19.034;2023-02-10T09:59:27;102680.22;;;2.59;57.92
62152;BME280;48139;47.474;19.034;2023-02-10T10:02:34;102674.00;;;2.51;57.34
62152;BME280;48139;47.474;19.034;2023-02-10T10:05:55;102674.94;;;2.55;58.02
62152;BME280;48139;47.474;19.034;2023-02-10T10:12:17;102663.22;;;2.70;57.39
62152;BME280;48139;47.474;19.034;2023-02-10T10:15:19;102656.41;;;2.74;56.65
62152;BME280;48139;47.474;19.034;2023-02-10T10:18:31;102657.03;;;2.62;57.40
62152;BME280;48139;47.474;19.034;2023-02-10T10:25:07;102661.47;;;2.69;57.28
62152;BME280;48139;47.474;19.034;2023-02-10T10:28:25;102663.53;;;2.84;55.84
62152;BME280;48139;47.474;19.034;2023-02-10T10:31:37;102659.97;;;2.79;55.91
62152;BME280;48139;47.474;19.034;2023-02-10T10:34:45;102667.72;;;2.79;56.66
62152;BME280;48139;47.474;19.034;2023-02-10T10:37:51;102660.53;;;2.66;57.11
62152;BME280;48139;47.474;19.034;2023-02-10T10:40:58;102672.91;;;2.79;57.03
62152;BME280;48139;47.474;19.034;2023-02-10T10:44:02;102661.91;;;2.89;55.60
62152;BME280;48139;47.474;19.034;2023-02-10T10:47:10;102647.94;;;2.81;55.82
62152;BME280;48139;47.474;19.034;2023-02-10T10:50:18;102640.69;;;3.05;55.01
62152;BME280;48139;47.474;19.034;2023-02-10T10:56:57;102630.84;;;3.33;53.80
62152;BME280;48139;47.474;19.034;2023-02-10T11:00:24;102628.47;;;3.43;52.62
62152;BME280;48139;47.474;19.034;2023-02-10T11:03:27;102635.44;;;3.47;52.14
62152;BME280;48139;47.474;19.034;2023-02-10T11:06:33;102626.09;;;3.57;51.82
62152;BME280;48139;47.474;19.034;2023-02-10T11:09:41;102606.91;;;3.46;52.24
62152;BME280;48139;47.474;19.034;2023-02-10T11:12:50;102595.13;;;3.63;51.41
62152;BME280;48139;47.474;19.034;2023-02-10T11:16:03;102590.94;;;3.71;50.93
62152;BME280;48139;47.474;19.034;2023-02-10T11:19:20;102589.16;;;3.67;50.74
62152;BME280;48139;47.474;19.034;2023-02-10T11:22:24;102591.66;;;3.62;51.05
62152;BME280;48139;47.474;19.034;2023-02-10T11:25:31;102590.00;;;3.66;51.43
62152;BME280;48139;47.474;19.034;2023-02-10T11:28:34;102595.50;;;3.84;50.74
62152;BME280;48139;47.474;19.034;2023-02-10T11:31:38;102603.03;;;3.71;50.60
62152;BME280;48139;47.474;19.034;2023-02-10T11:34:45;102601.06;;;3.56;50.94
62152;BME280;48139;47.474;19.034;2023-02-10T11:37:55;102599.44;;;3.62;51.26
62152;BME280;48139;47.474;19.034;2023-02-10T11:41:01;102597.59;;;3.55;51.09
62152;BME280;48139;47.474;19.034;2023-02-10T11:44:32;102597.66;;;3.58;50.69
62152;BME280;48139;47.474;19.034;2023-02-10T11:47:34;102577.62;;;3.50;51.02
62152;BME280;48139;47.474;19.034;2023-02-10T11:50:37;102577.81;;;3.60;51.77
62152;BME280;48139;47.474;19.034;2023-02-10T11:53:41;102572.91;;;3.77;52.22
62152;BME280;48139;47.474;19.034;2023-02-10T12:00:19;102563.75;;;3.99;49.77
62152;BME280;48139;47.474;19.034;2023-02-10T12:06:41;102545.66;;;4.03;49.18
62152;BME280;48139;47.474;19.034;2023-02-10T12:10:17;102541.94;;;3.85;48.66
62152;BME280;48139;47.474;19.034;2023-02-10T12:17:11;102519.91;;;4.16;48.01
62152;BME280;48139;47.474;19.034;2023-02-10T12:23:50;102517.41;;;4.22;48.54
62152;BME280;48139;47.474;19.034;2023-02-10T12:27:05;102514.03;;;4.29;49.19
62152;BME280;48139;47.474;19.034;2023-02-10T12:30:28;102520.72;;;4.12;49.97
62152;BME280;48139;47.474;19.034;2023-02-10T12:53:37;102493.50;;;4.45;49.83
62152;BME280;48139;47.474;19.034;2023-02-10T12:56:46;102493.50;;;4.47;49.97
62152;BME280;48139;47.474;19.034;2023-02-10T13:00:06;102497.06;;;4.54;48.54
62152;BME280;48139;47.474;19.034;2023-02-10T13:03:21;102490.78;;;4.35;48.36
62152;BME280;48139;47.474;19.034;2023-02-10T13:06:42;102496.84;;;4.38;48.19
62152;BME280;48139;47.474;19.034;2023-02-10T13:09:50;102501.19;;;4.39;48.38
62152;BME280;48139;47.474;19.034;2023-02-10T13:13:00;102516.62;;;4.29;48.90
62152;BME280;48139;47.474;19.034;2023-02-10T13:16:08;102510.59;;;4.31;49.04
62152;BME280;48139;47.474;19.034;2023-02-10T13:29:42;102503.91;;;4.50;48.68
62152;BME280;48139;47.474;19.034;2023-02-10T13:33:09;102497.06;;;4.57;48.11
62152;BME280;48139;47.474;19.034;2023-02-10T13:36:19;102490.09;;;4.51;48.41
62152;BME280;48139;47.474;19.034;2023-02-10T13:39:28;102486.63;;;4.49;48.73
62152;BME280;48139;47.474;19.034;2023-02-10T13:42:38;102498.84;;;4.59;48.46
62152;BME280;48139;47.474;19.034;2023-02-10T13:45:52;102496.28;;;4.62;48.63
62152;BME280;48139;47.474;19.034;2023-02-10T13:48:58;102485.88;;;4.59;48.55
62152;BME280;48139;47.474;19.034;2023-02-10T13:52:11;102484.19;;;4.64;48.52
62152;BME280;48139;47.474;19.034;2023-02-10T13:58:26;102486.03;;;4.73;48.28
62152;BME280;48139;47.474;19.034;2023-02-10T14:04:45;102483.53;;;4.83;48.84
62152;BME280;48139;47.474;19.034;2023-02-10T14:07:51;102478.50;;;4.99;48.52
62152;BME280;48139;47.474;19.034;2023-02-10T14:11:03;102483.69;;;5.00;47.68
62152;BME280;48139;47.474;19.034;2023-02-10T14:14:38;102481.06;;;4.96;48.26
62152;BME280;48139;47.474;19.034;2023-02-10T14:17:52;102487.03;;;4.85;48.68
62152;BME280;48139;47.474;19.034;2023-02-10T14:21:10;102489.66;;;4.87;48.94
62152;BME280;48139;47.474;19.034;2023-02-10T14:24:17;102483.69;;;4.97;48.86
62152;BME280;48139;47.474;19.034;2023-02-10T14:27:30;102490.63;;;5.00;48.55
62152;BME280;48139;47.474;19.034;2023-02-10T14:30:40;102491.34;;;4.85;49.05
62152;BME280;48139;47.474;19.034;2023-02-10T14:33:56;102498.06;;;4.66;49.61
62152;BME280;48139;47.474;19.034;2023-02-10T14:37:16;102499.69;;;4.58;49.76
62152;BME280;48139;47.474;19.034;2023-02-10T14:40:20;102502.25;;;4.54;49.74
62152;BME280;48139;47.474;19.034;2023-02-10T14:43:29;102493.47;;;4.42;49.96
62152;BME280;48139;47.474;19.034;2023-02-10T14:46:32;102489.03;;;4.34;50.24
62152;BME280;48139;47.474;19.034;2023-02-10T14:49:36;102488.03;;;4.26;51.09
62152;BME280;48139;47.474;19.034;2023-02-10T14:52:48;102485.41;;;4.23;51.03
62152;BME280;48139;47.474;19.034;2023-02-10T14:55:59;102486.22;;;4.17;51.33
62152;BME280;48139;47.474;19.034;2023-02-10T14:59:02;102489.75;;;4.24;51.37
62152;BME280;48139;47.474;19.034;2023-02-10T15:02:17;102489.72;;;4.21;51.08
62152;BME280;48139;47.474;19.034;2023-02-10T15:05:21;102487.00;;;4.12;51.33
62152;BME280;48139;47.474;19.034;2023-02-10T15:11:48;102486.66;;;3.89;51.94
62152;BME280;48139;47.474;19.034;2023-02-10T15:15:23;102494.37;;;3.84;52.53
62152;BME280;48139;47.474;19.034;2023-02-10T15:18:30;102493.44;;;3.78;53.07
62152;BME280;48139;47.474;19.034;2023-02-10T15:21:36;102494.94;;;3.62;53.87
62152;BME280;48139;47.474;19.034;2023-02-10T15:24:39;102491.53;;;3.66;53.72
62152;BME280;48139;47.474;19.034;2023-02-10T15:27:42;102495.59;;;3.52;54.53
62152;BME280;48139;47.474;19.034;2023-02-10T15:33:58;102502.97;;;3.28;56.68
62152;BME280;48139;47.474;19.034;2023-02-10T15:37:02;102493.59;;;3.34;56.00
62152;BME280;48139;47.474;19.034;2023-02-10T15:40:36;102490.06;;;3.29;57.72
62152;BME280;48139;47.474;19.034;2023-02-10T15:43:47;102497.63;;;3.17;58.58
62152;BME280;48139;47.474;19.034;2023-02-10T15:46:52;102494.44;;;3.33;56.65
62152;BME280;48139;47.474;19.034;2023-02-10T15:49:57;102507.22;;;3.22;57.32
62152;BME280;48139;47.474;19.034;2023-02-10T15:53:01;102506.12;;;3.10;57.14
62152;BME280;48139;47.474;19.034;2023-02-10T15:56:04;102509.56;;;3.09;56.93
62152;BME280;48139;47.474;19.034;2023-02-10T15:59:15;102508.91;;;2.74;59.39
62152;BME280;48139;47.474;19.034;2023-02-10T16:02:18;102511.06;;;2.53;59.61
62152;BME280;48139;47.474;19.034;2023-02-10T16:05:22;102512.44;;;2.35;60.27
62152;BME280;48139;47.474;19.034;2023-02-10T16:08:25;102513.97;;;2.27;62.16
62152;BME280;48139;47.474;19.034;2023-02-10T16:11:29;102519.09;;;2.26;62.54
62152;BME280;48139;47.474;19.034;2023-02-10T16:14:31;102527.47;;;2.14;62.23
62152;BME280;48139;47.474;19.034;2023-02-10T16:17:38;102524.66;;;2.03;64.46
62152;BME280;48139;47.474;19.034;2023-02-10T16:20:41;102527.06;;;1.96;64.00
62152;BME280;48139;47.474;19.034;2023-02-10T16:23:44;102522.84;;;1.99;64.67
62152;BME280;48139;47.474;19.034;2023-02-10T16:26:47;102529.09;;;2.09;63.91
62152;BME280;48139;47.474;19.034;2023-02-10T16:29:50;102530.16;;;2.19;63.47
62152;BME280;48139;47.474;19.034;2023-02-10T16:32:54;102530.00;;;2.11;62.86
